createdAt,value
2022-11-22T00:01:44.361Z,100.00
2022-11-22T00:04:12.708Z,100.00
2022-11-22T00:06:41.929Z,100.00
2022-11-22T00:09:12.222Z,100.00
2022-11-22T00:11:40.220Z,100.00
2022-11-22T00:14:08.731Z,100.00
2022-11-22T00:16:38.493Z,100.00
2022-11-22T00:19:06.751Z,100.00
2022-11-22T00:21:36.218Z,100.00
2022-11-22T00:24:05.099Z,100.00
2022-11-22T00:26:35.913Z,100.00
2022-11-22T00:29:03.935Z,100.00
2022-11-22T00:31:33.790Z,100.00
2022-11-22T00:34:02.837Z,100.00
2022-11-22T00:36:31.620Z,100.00
2022-11-22T00:38:59.816Z,100.00
2022-11-22T00:41:29.403Z,100.00
2022-11-22T00:44:05.708Z,100.00
2022-11-22T00:46:35.131Z,100.00
2022-11-22T00:49:03.914Z,100.00
2022-11-22T00:51:33.007Z,100.00
2022-11-22T00:54:01.746Z,100.00
2022-11-22T00:56:29.875Z,100.00
2022-11-22T00:59:00.619Z,100.00
2022-11-22T01:01:29.763Z,100.00
2022-11-22T01:03:59.132Z,100.00
2022-11-22T01:06:28.717Z,100.00
2022-11-22T01:08:57.118Z,100.00
2022-11-22T01:11:26.592Z,100.00
2022-11-22T01:13:54.676Z,100.00
2022-11-22T01:16:25.647Z,100.00
2022-11-22T01:18:53.809Z,100.00
2022-11-22T01:21:23.001Z,100.00
2022-11-22T01:23:52.528Z,100.00
2022-11-22T01:26:21.688Z,100.00
2022-11-22T01:28:49.692Z,100.00
2022-11-22T01:31:19.331Z,100.00
2022-11-22T01:33:49.224Z,100.00
2022-11-22T01:36:17.681Z,100.00
2022-11-22T01:38:45.691Z,100.00
2022-11-22T01:41:13.958Z,100.00
2022-11-22T01:43:42.866Z,100.00
2022-11-22T01:46:20.692Z,100.00
2022-11-22T01:48:53.456Z,100.00
2022-11-22T01:51:26.825Z,100.00
2022-11-22T01:53:56.274Z,100.00
2022-11-22T01:56:25.946Z,100.00
2022-11-22T01:58:56.879Z,100.00
2022-11-22T02:01:26.031Z,100.00
2022-11-22T02:03:57.975Z,100.00
2022-11-22T02:06:29.208Z,100.00
2022-11-22T02:09:00.705Z,100.00
2022-11-22T02:11:34.098Z,100.00
2022-11-22T02:14:03.100Z,100.00
2022-11-22T02:16:32.301Z,100.00
2022-11-22T02:19:02.994Z,100.00
2022-11-22T02:21:31.952Z,100.00
2022-11-22T02:24:08.291Z,100.00
2022-11-22T02:26:38.448Z,100.00
2022-11-22T02:29:07.979Z,100.00
2022-11-22T02:31:40.682Z,100.00
2022-11-22T02:34:08.980Z,100.00
2022-11-22T02:36:41.011Z,100.00
2022-11-22T02:39:11.202Z,100.00
2022-11-22T02:41:41.670Z,100.00
2022-11-22T02:44:11.200Z,100.00
2022-11-22T02:46:48.014Z,100.00
2022-11-22T02:49:18.553Z,100.00
2022-11-22T02:51:47.409Z,100.00
2022-11-22T02:54:15.434Z,100.00
2022-11-22T02:56:45.520Z,100.00
2022-11-22T02:59:14.875Z,100.00
2022-11-22T03:01:43.491Z,100.00
2022-11-22T03:04:24.696Z,100.00
2022-11-22T03:06:55.378Z,100.00
2022-11-22T03:09:25.438Z,100.00
2022-11-22T03:11:55.572Z,100.00
2022-11-22T03:14:24.002Z,100.00
2022-11-22T03:16:53.598Z,100.00
2022-11-22T03:19:21.986Z,100.00
2022-11-22T03:21:51.525Z,100.00
2022-11-22T03:24:20.317Z,100.00
2022-11-22T03:26:50.342Z,100.00
2022-11-22T03:29:20.422Z,100.00
2022-11-22T03:31:49.987Z,100.00
2022-11-22T03:34:18.980Z,100.00
2022-11-22T03:36:48.281Z,100.00
2022-11-22T03:39:17.008Z,100.00
2022-11-22T03:41:46.259Z,100.00
2022-11-22T03:44:14.244Z,100.00
2022-11-22T03:46:45.119Z,100.00
2022-11-22T03:49:14.050Z,100.00
2022-11-22T03:51:50.980Z,100.00
2022-11-22T03:54:19.015Z,100.00
2022-11-22T03:56:48.452Z,100.00
2022-11-22T03:59:17.047Z,100.00
2022-11-22T04:01:47.833Z,100.00
2022-11-22T04:04:16.084Z,100.00
2022-11-22T04:06:45.281Z,100.00
2022-11-22T04:09:14.144Z,100.00
2022-11-22T04:11:42.295Z,100.00
2022-11-22T04:14:30.268Z,100.00
2022-11-22T04:17:00.892Z,100.00
2022-11-22T04:19:31.393Z,100.00
2022-11-22T04:22:00.137Z,100.00
2022-11-22T04:24:46.457Z,100.00
2022-11-22T04:27:15.050Z,100.00
2022-11-22T04:29:44.027Z,100.00
2022-11-22T04:32:32.014Z,100.00
2022-11-22T04:35:01.060Z,100.00
2022-11-22T04:37:29.093Z,100.00
2022-11-22T04:39:58.424Z,100.00
2022-11-22T04:42:44.802Z,100.00
2022-11-22T04:45:13.134Z,100.00
2022-11-22T04:48:02.064Z,100.00
2022-11-22T04:50:52.155Z,100.00
2022-11-22T04:53:21.596Z,100.00
2022-11-22T04:55:50.139Z,100.00
2022-11-22T04:58:18.637Z,100.00
2022-11-22T05:00:47.302Z,100.00
2022-11-22T05:03:16.865Z,100.00
2022-11-22T05:05:45.710Z,100.00
2022-11-22T05:08:14.036Z,100.00
2022-11-22T05:11:00.655Z,100.00
2022-11-22T05:13:31.637Z,100.00
2022-11-22T05:16:00.714Z,100.00
2022-11-22T05:18:30.551Z,100.00
2022-11-22T05:21:00.208Z,100.00
2022-11-22T05:23:45.530Z,100.00
2022-11-22T05:26:14.166Z,100.00
2022-11-22T05:28:43.473Z,100.00
2022-11-22T05:31:13.535Z,100.00
2022-11-22T05:33:44.358Z,100.00
2022-11-22T05:36:13.970Z,100.00
2022-11-22T05:38:43.256Z,100.00
2022-11-22T05:41:13.721Z,100.00
2022-11-22T05:43:42.165Z,100.00
2022-11-22T05:46:12.434Z,100.00
2022-11-22T05:48:44.402Z,100.00
2022-11-22T05:51:15.745Z,100.00
2022-11-22T05:53:45.991Z,100.00
2022-11-22T05:56:23.787Z,100.00
2022-11-22T05:58:57.224Z,100.00
2022-11-22T06:01:26.060Z,100.00
2022-11-22T06:04:03.123Z,100.00
2022-11-22T06:06:34.740Z,100.00
2022-11-22T06:09:04.418Z,100.00
2022-11-22T06:11:33.623Z,100.00
2022-11-22T06:14:07.637Z,100.00
2022-11-22T06:16:37.725Z,100.00
2022-11-22T06:19:12.939Z,100.00
2022-11-22T06:21:42.257Z,100.00
2022-11-22T06:24:14.106Z,100.00
2022-11-22T06:26:45.747Z,100.00
2022-11-22T06:29:14.181Z,100.00
2022-11-22T06:31:45.908Z,100.00
2022-11-22T06:34:16.426Z,100.00
2022-11-22T06:36:47.526Z,100.00
2022-11-22T06:39:16.350Z,100.00
2022-11-22T06:41:47.523Z,100.00
2022-11-22T06:44:18.938Z,100.00
2022-11-22T06:46:47.251Z,100.00
2022-11-22T06:49:18.987Z,100.00
2022-11-22T06:51:47.272Z,100.00
2022-11-22T06:54:15.491Z,100.00
2022-11-22T06:56:43.563Z,100.00
2022-11-22T06:59:11.923Z,100.00
2022-11-22T07:01:39.983Z,100.00
2022-11-22T07:04:12.304Z,100.00
2022-11-22T07:06:41.796Z,100.00
2022-11-22T07:09:11.937Z,100.00
2022-11-22T07:11:41.117Z,100.00
2022-11-22T07:14:09.654Z,100.00
2022-11-22T07:16:38.630Z,100.00
2022-11-22T07:19:07.314Z,100.00
2022-11-22T07:21:37.229Z,100.00
2022-11-22T07:24:08.119Z,100.00
2022-11-22T07:26:36.285Z,100.00
2022-11-22T07:29:04.895Z,100.00
2022-11-22T07:31:32.991Z,100.00
2022-11-22T07:34:01.085Z,100.00
2022-11-22T07:36:30.482Z,100.00
2022-11-22T07:38:58.581Z,100.00
2022-11-22T07:41:27.989Z,100.00
2022-11-22T07:43:56.067Z,100.00
2022-11-22T07:46:26.354Z,100.00
2022-11-22T07:48:54.587Z,100.00
2022-11-22T07:51:22.882Z,100.00
2022-11-22T07:53:51.065Z,100.00
2022-11-22T07:56:19.462Z,100.00
2022-11-22T07:58:49.146Z,100.00
2022-11-22T08:01:18.766Z,100.00
2022-11-22T08:03:47.772Z,100.00
2022-11-22T08:06:16.676Z,100.00
2022-11-22T08:08:45.255Z,100.00
2022-11-22T08:11:22.052Z,100.00
2022-11-22T08:13:53.834Z,100.00
2022-11-22T08:16:21.892Z,100.00
2022-11-22T08:18:50.967Z,100.00
2022-11-22T08:21:20.034Z,100.00
2022-11-22T08:23:48.868Z,100.00
2022-11-22T08:26:18.127Z,100.00
2022-11-22T08:28:46.554Z,100.00
2022-11-22T08:31:19.067Z,100.00
2022-11-22T08:33:47.737Z,100.00
2022-11-22T08:36:15.757Z,100.00
2022-11-22T08:38:43.909Z,100.00
2022-11-22T08:41:12.277Z,100.00
2022-11-22T08:43:40.418Z,100.00
2022-11-22T08:46:08.578Z,100.00
2022-11-22T08:48:39.437Z,100.00
2022-11-22T08:51:09.353Z,100.00
2022-11-22T08:53:39.719Z,100.00
2022-11-22T08:56:09.815Z,100.00
2022-11-22T08:58:38.310Z,100.00
2022-11-22T09:01:07.272Z,100.00
2022-11-22T09:03:37.240Z,100.00
2022-11-22T09:09:08.727Z,100.00
2022-11-22T09:11:42.539Z,100.00
2022-11-22T09:14:10.677Z,100.00
2022-11-22T09:16:38.737Z,100.00
2022-11-22T09:19:08.136Z,100.00
2022-11-22T09:21:36.164Z,100.00
2022-11-22T09:24:04.350Z,100.00
2022-11-22T09:26:33.087Z,100.00
2022-11-22T09:29:01.213Z,100.00
2022-11-22T09:31:29.330Z,100.00
2022-11-22T09:33:57.398Z,100.00
2022-11-22T09:36:27.393Z,100.00
2022-11-22T09:38:56.223Z,100.00
2022-11-22T09:41:56.228Z,100.00
2022-11-22T09:44:32.876Z,100.00
2022-11-22T09:47:07.097Z,100.00
2022-11-22T09:49:43.307Z,100.00
2022-11-22T09:52:16.659Z,100.00
2022-11-22T09:54:47.948Z,100.00
2022-11-22T09:57:19.688Z,100.00
2022-11-22T09:59:49.074Z,100.00
2022-11-22T10:02:20.934Z,100.00
2022-11-22T10:04:54.260Z,100.00
2022-11-22T10:07:26.644Z,100.00
2022-11-22T10:09:58.372Z,100.00
2022-11-22T10:12:35.131Z,100.00
2022-11-22T10:15:07.672Z,100.00
2022-11-22T10:17:45.865Z,100.00
2022-11-22T10:20:17.131Z,100.00
2022-11-22T10:22:46.849Z,100.00
2022-11-22T10:25:19.021Z,100.00
2022-11-22T10:27:50.236Z,100.00
2022-11-22T10:30:20.230Z,100.00
2022-11-22T10:32:57.846Z,100.00
2022-11-22T10:35:36.121Z,100.00
2022-11-22T10:38:27.580Z,100.00
2022-11-22T10:40:59.736Z,100.00
2022-11-22T10:43:34.097Z,100.00
2022-11-22T10:46:07.645Z,100.00
2022-11-22T10:48:40.261Z,100.00
2022-11-22T10:51:15.961Z,100.00
2022-11-22T10:54:03.550Z,100.00
2022-11-22T10:56:35.966Z,100.00
2022-11-22T10:59:28.991Z,100.00
2022-11-22T11:02:02.648Z,100.00
2022-11-22T11:04:32.741Z,100.00
2022-11-22T11:07:12.027Z,100.00
2022-11-22T11:12:40.364Z,100.00
2022-11-22T11:15:17.436Z,100.00
2022-11-22T11:17:47.177Z,100.00
2022-11-22T11:20:20.725Z,100.00
2022-11-22T11:25:40.583Z,100.00
2022-11-22T11:28:11.495Z,100.00
2022-11-22T11:30:41.182Z,100.00
2022-11-22T11:33:26.573Z,100.00
2022-11-22T11:35:57.125Z,100.00
2022-11-22T11:38:32.839Z,100.00
2022-11-22T11:41:17.909Z,100.00
2022-11-22T11:43:46.705Z,100.00
2022-11-22T11:46:18.295Z,100.00
2022-11-22T11:48:46.546Z,100.00
2022-11-22T11:51:21.944Z,100.00
2022-11-22T11:53:57.575Z,100.00
2022-11-22T11:56:35.441Z,100.00
2022-11-22T11:59:08.349Z,100.00
2022-11-22T12:02:15.017Z,100.00
2022-11-22T12:04:27.764Z,100.00
2022-11-22T12:07:03.035Z,100.00
2022-11-22T12:09:34.124Z,100.00
2022-11-22T12:12:25.840Z,100.00
2022-11-22T12:15:16.074Z,100.00
2022-11-22T12:17:53.546Z,100.00
2022-11-22T12:20:24.721Z,100.00
2022-11-22T12:23:02.508Z,99.70
2022-11-22T12:25:35.713Z,99.93
2022-11-22T12:28:14.305Z,99.81
2022-11-22T12:30:43.785Z,99.83
2022-11-22T12:33:18.872Z,99.35
2022-11-22T12:35:50.231Z,99.73
2022-11-22T12:38:20.902Z,100.00
2022-11-22T12:40:52.388Z,99.86
2022-11-22T12:43:24.543Z,100.00
2022-11-22T12:45:54.431Z,100.00
2022-11-22T12:48:25.148Z,100.00
2022-11-22T12:50:54.625Z,100.00
2022-11-22T12:53:26.007Z,99.18
2022-11-22T12:55:59.214Z,99.01
2022-11-22T12:58:34.556Z,98.65
2022-11-22T13:01:10.653Z,99.26
2022-11-22T13:03:41.322Z,99.18
2022-11-22T13:06:10.608Z,99.92
2022-11-22T13:08:42.433Z,99.10
2022-11-22T13:11:15.851Z,97.59
2022-11-22T13:13:47.908Z,98.16
2022-11-22T13:16:16.034Z,98.92
2022-11-22T13:18:47.247Z,98.23
2022-11-22T13:21:23.240Z,97.89
2022-11-22T13:24:00.473Z,97.79
2022-11-22T13:26:34.363Z,97.20
2022-11-22T13:29:11.564Z,97.61
2022-11-22T13:31:41.195Z,97.53
2022-11-22T13:34:25.557Z,97.84
2022-11-22T13:36:57.814Z,98.07
2022-11-22T13:39:28.846Z,97.76
2022-11-22T13:42:04.342Z,97.71
2022-11-22T13:44:39.664Z,98.46
2022-11-22T13:47:52.233Z,97.39
2022-11-22T13:51:02.375Z,99.05
2022-11-22T13:53:32.688Z,98.54
2022-11-22T13:56:48.852Z,97.88
2022-11-22T13:59:19.068Z,98.68
2022-11-22T14:02:01.166Z,98.33
2022-11-22T14:04:41.874Z,98.46
2022-11-22T14:07:43.355Z,98.49
2022-11-22T14:10:34.036Z,97.85
2022-11-22T14:13:30.372Z,98.11
2022-11-22T14:16:11.115Z,98.92
2022-11-22T14:18:52.419Z,99.91
2022-11-22T14:21:30.973Z,98.76
2022-11-22T14:24:02.995Z,98.92
2022-11-22T14:26:36.107Z,97.70
2022-11-22T14:29:18.303Z,98.00
2022-11-22T14:31:57.358Z,98.67
2022-11-22T14:34:27.976Z,98.25
2022-11-22T14:37:33.820Z,98.35
2022-11-22T14:40:17.661Z,98.05
2022-11-22T14:42:48.288Z,98.00
2022-11-22T14:45:23.234Z,98.71
2022-11-22T14:47:59.811Z,97.48
2022-11-22T14:50:32.414Z,98.62
2022-11-22T14:53:05.784Z,98.96
2022-11-22T14:55:35.176Z,99.06
2022-11-22T14:58:05.789Z,98.78
2022-11-22T15:00:45.624Z,98.68
2022-11-22T15:03:42.784Z,98.64
2022-11-22T15:09:18.784Z,98.03
2022-11-22T15:09:53.932Z,98.42
2022-11-22T15:12:41.450Z,97.66
2022-11-22T15:59:10.296Z,99.67
2022-11-22T16:01:40.587Z,98.71
2022-11-22T16:04:21.675Z,97.92
2022-11-22T16:06:50.884Z,99.56
2022-11-22T16:09:35.837Z,99.41
2022-11-22T16:12:09.073Z,99.40
2022-11-22T16:14:44.733Z,100.00
2022-11-22T16:17:32.569Z,99.35
2022-11-22T16:20:34.284Z,100.00
2022-11-22T16:23:28.271Z,98.83
2022-11-22T16:26:01.190Z,98.85
2022-11-22T16:28:39.421Z,98.44
2022-11-22T16:31:22.519Z,99.30
2022-11-22T16:33:53.098Z,99.86
2022-11-22T16:36:25.009Z,99.48
2022-11-22T16:39:01.221Z,99.93
2022-11-22T16:41:31.712Z,100.00
2022-11-22T16:44:03.577Z,99.76
2022-11-22T16:46:36.009Z,99.20
2022-11-22T16:49:21.363Z,99.73
2022-11-22T16:51:55.089Z,100.00
2022-11-22T16:54:24.729Z,100.00
2022-11-22T16:56:55.662Z,99.86
2022-11-22T16:59:43.670Z,100.00
2022-11-22T17:02:20.499Z,99.71
2022-11-22T17:04:49.872Z,99.72
2022-11-22T17:07:21.962Z,99.52
2022-11-22T17:09:53.380Z,99.57
2022-11-22T17:12:32.086Z,99.02
2022-11-22T17:15:04.628Z,99.84
2022-11-22T17:17:33.407Z,99.45
2022-11-22T17:20:03.993Z,99.14
2022-11-22T17:22:37.046Z,99.11
2022-11-22T17:25:10.868Z,99.27
2022-11-22T17:27:53.895Z,98.90
2022-11-22T17:30:31.685Z,98.64
2022-11-22T17:33:02.609Z,98.66
2022-11-22T17:35:37.170Z,98.74
2022-11-22T17:38:08.315Z,99.44
2022-11-22T17:40:41.508Z,99.42
2022-11-22T17:43:21.677Z,98.92
2022-11-22T17:45:55.494Z,99.50
2022-11-22T17:48:31.136Z,99.18
2022-11-22T17:51:00.495Z,99.31
2022-11-22T17:53:30.686Z,99.71
2022-11-22T17:56:11.232Z,98.72
2022-11-22T17:58:42.848Z,99.77
2022-11-22T18:01:16.758Z,98.46
2022-11-22T18:03:47.789Z,98.79
2022-11-22T18:06:19.460Z,98.75
2022-11-22T18:08:49.454Z,98.76
2022-11-22T18:11:24.173Z,98.92
2022-11-22T18:13:56.448Z,98.95
2022-11-22T18:16:41.038Z,98.62
2022-11-22T18:19:10.863Z,99.27
2022-11-22T18:21:40.494Z,97.91
2022-11-22T18:24:10.605Z,97.98
2022-11-22T18:26:40.748Z,98.21
2022-11-22T18:32:15.216Z,98.47
2022-11-22T18:34:48.405Z,97.59
2022-11-22T18:37:19.534Z,97.88
2022-11-22T18:39:49.910Z,97.63
2022-11-22T18:42:23.879Z,97.52
2022-11-22T18:44:54.871Z,97.80
2022-11-22T18:47:32.731Z,97.68
2022-11-22T18:50:12.412Z,98.16
2022-11-22T18:52:44.935Z,98.01
2022-11-22T18:55:18.173Z,98.52
2022-11-22T18:57:52.595Z,96.44
2022-11-22T19:00:23.229Z,97.31
2022-11-22T19:02:54.890Z,97.38
2022-11-22T19:05:25.260Z,96.41
2022-11-22T19:07:55.143Z,96.67
2022-11-22T19:10:29.359Z,96.57
2022-11-22T19:12:59.668Z,96.88
2022-11-22T19:15:31.184Z,97.07
2022-11-22T19:18:01.742Z,96.66
2022-11-22T19:20:54.116Z,96.31
2022-11-22T19:23:26.839Z,96.57
2022-11-22T19:25:56.957Z,97.13
2022-11-22T19:28:29.466Z,94.32
2022-11-22T19:31:04.519Z,95.85
2022-11-22T19:33:38.546Z,95.67
2022-11-22T19:36:13.048Z,96.09
2022-11-22T19:38:51.765Z,95.85
2022-11-22T19:41:23.179Z,95.30
2022-11-22T19:43:54.706Z,94.37
2022-11-22T19:46:25.634Z,94.50
2022-11-22T19:49:00.423Z,93.93
2022-11-22T19:51:32.583Z,95.26
2022-11-22T19:54:07.269Z,95.40
2022-11-22T19:56:41.047Z,95.44
2022-11-22T19:59:16.635Z,96.49
2022-11-22T20:01:49.976Z,95.10
2022-11-22T20:04:22.109Z,96.23
2022-11-22T20:06:53.036Z,96.26
2022-11-22T20:09:25.093Z,95.45
2022-11-22T20:11:57.495Z,95.54
2022-11-22T20:14:26.994Z,96.43
2022-11-22T20:17:01.738Z,97.51
2022-11-22T20:19:34.641Z,97.69
2022-11-22T20:22:05.630Z,96.72
2022-11-22T20:24:36.979Z,98.40
2022-11-22T20:27:09.805Z,99.95
2022-11-22T20:29:39.707Z,100.00
2022-11-22T20:32:09.893Z,100.00
2022-11-22T20:34:42.351Z,100.00
2022-11-22T20:37:13.450Z,100.00
2022-11-22T20:39:44.318Z,100.00
2022-11-22T20:45:09.599Z,100.00
2022-11-22T20:47:40.342Z,100.00
2022-11-22T20:50:13.345Z,100.00
2022-11-22T20:52:44.073Z,100.00
2022-11-22T20:55:15.180Z,100.00
2022-11-22T20:57:45.700Z,100.00
2022-11-22T21:00:18.294Z,100.00
2022-11-22T21:02:48.754Z,100.00
2022-11-22T21:05:20.068Z,100.00
2022-11-22T21:07:49.152Z,100.00
2022-11-22T21:10:19.000Z,100.00
2022-11-22T21:12:48.449Z,100.00
2022-11-22T21:15:19.268Z,100.00
2022-11-22T21:18:09.501Z,100.00
2022-11-22T21:20:39.646Z,100.00
2022-11-22T21:23:07.897Z,100.00
2022-11-22T21:25:38.650Z,100.00
2022-11-22T21:28:08.601Z,100.00
2022-11-22T21:30:38.570Z,100.00
2022-11-22T21:33:06.685Z,100.00
2022-11-22T21:35:36.124Z,100.00
2022-11-22T21:38:05.674Z,100.00
2022-11-22T21:40:34.805Z,100.00
2022-11-22T21:43:02.887Z,100.00
2022-11-22T21:45:32.788Z,100.00
2022-11-22T21:48:00.874Z,100.00
2022-11-22T21:50:30.483Z,100.00
2022-11-22T21:52:58.578Z,100.00
2022-11-22T21:55:29.322Z,100.00
2022-11-22T21:57:57.403Z,100.00
2022-11-22T22:00:29.594Z,100.00
2022-11-22T22:02:57.772Z,100.00
2022-11-22T22:05:27.252Z,100.00
2022-11-22T22:07:55.832Z,100.00
2022-11-22T22:10:25.350Z,100.00
2022-11-22T22:12:54.835Z,100.00
2022-11-22T22:15:23.408Z,100.00
2022-11-22T22:17:53.822Z,100.00
2022-11-22T22:20:22.473Z,100.00
2022-11-22T22:22:50.800Z,100.00
2022-11-22T22:25:19.518Z,100.00
2022-11-22T22:27:47.930Z,100.00
2022-11-22T22:30:19.075Z,100.00
2022-11-22T22:32:48.314Z,100.00
2022-11-22T22:35:18.030Z,100.00
2022-11-22T22:37:46.384Z,100.00
2022-11-22T22:40:14.593Z,100.00
2022-11-22T22:42:43.347Z,100.00
2022-11-22T22:45:12.637Z,100.00
2022-11-22T22:47:42.718Z,100.00
2022-11-22T22:50:11.887Z,100.00
2022-11-22T22:52:40.372Z,100.00
2022-11-22T22:55:10.563Z,100.00
2022-11-22T22:57:39.367Z,100.00
2022-11-22T23:00:09.691Z,100.00
2022-11-22T23:02:39.382Z,100.00
2022-11-22T23:05:10.435Z,100.00
2022-11-22T23:07:43.815Z,100.00
2022-11-22T23:10:13.378Z,100.00
2022-11-22T23:12:42.758Z,100.00
2022-11-22T23:15:11.730Z,100.00
2022-11-22T23:17:40.911Z,100.00
2022-11-22T23:20:11.658Z,100.00
2022-11-22T23:22:40.945Z,100.00
2022-11-22T23:25:10.302Z,100.00
2022-11-22T23:27:39.856Z,100.00
2022-11-22T23:30:09.762Z,100.00
2022-11-22T23:32:39.025Z,100.00
2022-11-22T23:35:08.459Z,100.00
2022-11-22T23:37:39.338Z,100.00
2022-11-22T23:40:08.601Z,100.00
2022-11-22T23:42:40.609Z,100.00
2022-11-22T23:45:10.545Z,100.00
2022-11-22T23:47:39.588Z,100.00
2022-11-22T23:50:10.828Z,100.00
2022-11-22T23:52:41.789Z,100.00
2022-11-22T23:55:10.793Z,100.00
2022-11-22T23:57:40.047Z,100.00
